Time;durP1;ratioP1;P1;durP2;ratioP2;P2;SDS_P1;SDS_P2;PMS_P1;PMS_P2;Temp;Humidity;BMP_temperature;BMP_pressure;BME280_temperature;BME280_humidity;BME280_pressure;Samples;Min_cycle;Max_cycle;Signal;HPM_P1;HPM_P2
2023/04/21 00:00:14;;;;;;;6.50;5.90;;;;;;;;;;5094044;28;20474;-59
2023/04/21 00:02:41;;;;;;;14.40;6.07;;;;;;;;;;5094405;28;20485;-60
2023/04/21 00:05:09;;;;;;;17.87;6.17;;;;;;;;;;5094316;28;20505;-59
2023/04/21 00:07:37;;;;;;;8.90;6.20;;;;;;;;;;5094560;28;20449;-59
2023/04/21 00:10:05;;;;;;;12.20;7.53;;;;;;;;;;5094513;28;20504;-59
2023/04/21 00:12:33;;;;;;;11.10;6.60;;;;;;;;;;5094544;28;20542;-59
2023/04/21 00:15:00;;;;;;;11.43;7.43;;;;;;;;;;5094388;28;20508;-59
2023/04/21 00:17:27;;;;;;;8.50;5.97;;;;;;;;;;5094564;28;20451;-59
2023/04/21 00:19:54;;;;;;;14.33;6.90;;;;;;;;;;5094211;28;20465;-59
2023/04/21 00:22:21;;;;;;;10.60;6.77;;;;;;;;;;5094170;28;20487;-59
2023/04/21 00:24:48;;;;;;;8.53;7.13;;;;;;;;;;5094257;28;20451;-59
2023/04/21 00:27:15;;;;;;;13.30;8.33;;;;;;;;;;5093949;28;20538;-59
2023/04/21 00:29:43;;;;;;;13.50;6.97;;;;;;;;;;5093927;28;20500;-60
2023/04/21 00:32:10;;;;;;;8.63;7.30;;;;;;;;;;5093827;28;20447;-60
2023/04/21 00:34:37;;;;;;;12.60;7.10;;;;;;;;;;5094075;28;20447;-59
2023/04/21 00:37:04;;;;;;;11.50;7.87;;;;;;;;;;5093962;28;20549;-59
2023/04/21 00:39:31;;;;;;;13.53;7.90;;;;;;;;;;5093877;28;20545;-60
2023/04/21 00:41:58;;;;;;;13.73;7.80;;;;;;;;;;5093752;28;20578;-59
2023/04/21 00:44:24;;;;;;;12.67;8.07;;;;;;;;;;5093795;28;20936;-60
2023/04/21 00:46:53;;;;;;;9.17;7.23;;;;;;;;;;5093606;28;20812;-60
2023/04/21 00:49:20;;;;;;;11.63;7.40;;;;;;;;;;5093790;28;20486;-60
2023/04/21 00:51:46;;;;;;;13.47;8.10;;;;;;;;;;5093694;28;20453;-59
2023/04/21 00:54:14;;;;;;;13.17;7.63;;;;;;;;;;5093388;28;20919;-59
2023/04/21 00:56:41;;;;;;;16.83;7.40;;;;;;;;;;5093485;28;20451;-59
2023/04/21 00:59:08;;;;;;;14.50;8.90;;;;;;;;;;5093445;28;20451;-59
2023/04/21 01:01:36;;;;;;;14.87;7.40;;;;;;;;;;5093215;28;20875;-59
2023/04/21 01:04:05;;;;;;;13.10;7.67;;;;;;;;;;5093252;28;21005;-59
2023/04/21 01:06:34;;;;;;;11.17;8.37;;;;;;;;;;5093442;28;20516;-60
2023/04/21 01:09:04;;;;;;;15.20;8.80;;;;;;;;;;5093359;28;20538;-59
2023/04/21 01:11:31;;;;;;;11.70;8.80;;;;;;;;;;5092468;28;20455;-59
2023/04/21 01:14:00;;;;;;;14.93;9.60;;;;;;;;;;5093112;28;20455;-59
2023/04/21 01:16:31;;;;;;;11.77;8.80;;;;;;;;;;5093390;28;20446;-59
2023/04/21 01:18:58;;;;;;;15.53;8.20;;;;;;;;;;5093324;28;20833;-59
2023/04/21 01:21:30;;;;;;;11.23;9.23;;;;;;;;;;5093147;28;20520;-59
2023/04/21 01:23:59;;;;;;;12.90;8.53;;;;;;;;;;5093101;28;20461;-59
2023/04/21 01:26:28;;;;;;;10.83;8.13;;;;;;;;;;5093010;28;20787;-59
2023/04/21 01:29:01;;;;;;;12.10;8.90;;;;;;;;;;5093216;28;20874;-59
2023/04/21 01:31:28;;;;;;;15.67;8.63;;;;;;;;;;5093019;28;20954;-59
2023/04/21 01:33:58;;;;;;;12.13;8.80;;;;;;;;;;5093074;28;20538;-59
2023/04/21 01:36:25;;;;;;;10.27;8.50;;;;;;;;;;5092956;28;20453;-59
2023/04/21 01:38:54;;;;;;;14.37;9.87;;;;;;;;;;5092864;28;20447;-59
2023/04/21 01:41:25;;;;;;;17.07;10.33;;;;;;;;;;5093162;28;20476;-59
2023/04/21 01:43:51;;;;;;;12.67;9.00;;;;;;;;;;5093081;28;20611;-59
2023/04/21 01:46:19;;;;;;;12.33;9.27;;;;;;;;;;5092852;28;20457;-59
2023/04/21 01:48:46;;;;;;;13.37;9.80;;;;;;;;;;5092956;28;20447;-59
2023/04/21 01:51:13;;;;;;;13.60;8.73;;;;;;;;;;5092895;28;20802;-59
2023/04/21 01:53:40;;;;;;;13.50;9.23;;;;;;;;;;5092581;28;20474;-59
2023/04/21 01:56:07;;;;;;;16.10;9.30;;;;;;;;;;5093003;28;20888;-59
2023/04/21 01:58:35;;;;;;;13.33;9.73;;;;;;;;;;5092925;28;20801;-59
2023/04/21 02:01:02;;;;;;;13.87;10.00;;;;;;;;;;5092878;28;20451;-59
2023/04/21 02:03:29;;;;;;;18.80;11.00;;;;;;;;;;5092670;28;20478;-60
2023/04/21 02:05:56;;;;;;;16.00;10.20;;;;;;;;;;5092582;28;20946;-59
2023/04/21 02:08:23;;;;;;;11.17;9.87;;;;;;;;;;5092868;28;20482;-60
2023/04/21 02:10:50;;;;;;;12.83;9.90;;;;;;;;;;5092832;28;20447;-59
2023/04/21 02:13:17;;;;;;;13.43;9.60;;;;;;;;;;5092763;28;20447;-59
2023/04/21 02:15:45;;;;;;;13.10;9.90;;;;;;;;;;5092581;28;20482;-59
2023/04/21 02:18:13;;;;;;;14.67;11.10;;;;;;;;;;5092553;28;20451;-59
2023/04/21 02:20:40;;;;;;;11.77;9.20;;;;;;;;;;5092501;28;20854;-60
2023/04/21 02:23:07;;;;;;;16.40;9.80;;;;;;;;;;5095071;28;21055;-59
2023/04/21 02:25:34;;;;;;;12.33;9.63;;;;;;;;;;5096551;28;20537;-59
2023/04/21 02:28:01;;;;;;;14.33;9.83;;;;;;;;;;5096371;28;20887;-60
2023/04/21 02:30:28;;;;;;;15.43;10.90;;;;;;;;;;5096284;28;20559;-59
2023/04/21 02:32:56;;;;;;;11.93;10.33;;;;;;;;;;5096117;28;20453;-60
2023/04/21 02:35:23;;;;;;;13.73;9.60;;;;;;;;;;5096382;28;20538;-59
2023/04/21 02:37:50;;;;;;;12.77;10.90;;;;;;;;;;5096259;28;20446;-59
2023/04/21 02:40:17;;;;;;;12.67;10.23;;;;;;;;;;5096292;28;20443;-59
2023/04/21 02:42:44;;;;;;;14.20;11.03;;;;;;;;;;5096080;28;20479;-59
2023/04/21 02:45:11;;;;;;;15.30;10.00;;;;;;;;;;5095971;28;20447;-59
2023/04/21 02:47:38;;;;;;;13.53;9.90;;;;;;;;;;5095839;28;20446;-59
2023/04/21 02:50:07;;;;;;;15.43;9.97;;;;;;;;;;5096091;28;21030;-59
2023/04/21 02:52:36;;;;;;;11.50;10.30;;;;;;;;;;5095851;28;20485;-59
2023/04/21 02:55:03;;;;;;;12.93;10.10;;;;;;;;;;5095573;28;20479;-59
2023/04/21 02:57:30;;;;;;;12.33;9.93;;;;;;;;;;5095756;28;20478;-59
2023/04/21 02:59:57;;;;;;;10.80;9.80;;;;;;;;;;5095716;28;20508;-59
2023/04/21 03:02:25;;;;;;;12.23;11.07;;;;;;;;;;5095487;28;20478;-59
2023/04/21 03:04:52;;;;;;;11.50;10.40;;;;;;;;;;5095701;28;20455;-59
2023/04/21 03:07:21;;;;;;;17.47;10.73;;;;;;;;;;5095679;28;20443;-59
2023/04/21 03:09:47;;;;;;;13.57;10.93;;;;;;;;;;5095617;28;20530;-59
2023/04/21 03:12:14;;;;;;;14.60;10.90;;;;;;;;;;5095385;28;20451;-59
2023/04/21 03:14:41;;;;;;;14.10;10.80;;;;;;;;;;5095251;28;20447;-59
2023/04/21 03:17:08;;;;;;;18.03;11.37;;;;;;;;;;5095560;28;20443;-59
2023/04/21 03:19:35;;;;;;;12.07;10.90;;;;;;;;;;5095270;28;20946;-59
2023/04/21 03:22:02;;;;;;;16.20;10.73;;;;;;;;;;5095296;28;20534;-59
2023/04/21 03:24:31;;;;;;;11.93;10.47;;;;;;;;;;5095210;28;20457;-59
2023/04/21 03:26:58;;;;;;;12.23;11.13;;;;;;;;;;5095112;28;20446;-59
2023/04/21 03:29:25;;;;;;;12.20;10.80;;;;;;;;;;5095002;28;20534;-59
2023/04/21 03:31:52;;;;;;;15.20;10.93;;;;;;;;;;5095481;28;20497;-59
2023/04/21 03:34:19;;;;;;;18.93;11.07;;;;;;;;;;5094178;28;20446;-59
2023/04/21 03:36:46;;;;;;;16.40;11.60;;;;;;;;;;5094961;28;20453;-59
2023/04/21 03:39:13;;;;;;;12.60;10.00;;;;;;;;;;5095082;28;20451;-59
2023/04/21 03:41:41;;;;;;;12.40;11.07;;;;;;;;;;5094821;28;20538;-59
2023/04/21 03:44:08;;;;;;;15.53;10.90;;;;;;;;;;5094697;28;20483;-59
2023/04/21 03:46:34;;;;;;;13.77;11.53;;;;;;;;;;5094925;28;20884;-59
2023/04/21 03:49:02;;;;;;;13.17;11.83;;;;;;;;;;5094892;28;20447;-59
2023/04/21 03:51:31;;;;;;;12.77;10.97;;;;;;;;;;5094784;28;20474;-59
2023/04/21 03:53:58;;;;;;;12.53;11.27;;;;;;;;;;5094465;28;20482;-59
2023/04/21 03:56:24;;;;;;;14.13;11.07;;;;;;;;;;5094586;28;20447;-59
2023/04/21 03:58:53;;;;;;;15.20;11.13;;;;;;;;;;5094481;28;20457;-59
2023/04/21 04:01:20;;;;;;;12.23;10.90;;;;;;;;;;5094571;28;20545;-59
2023/04/21 04:03:47;;;;;;;14.33;11.20;;;;;;;;;;5094381;28;20548;-59
2023/04/21 04:06:14;;;;;;;30.47;11.83;;;;;;;;;;5094394;28;20447;-59
2023/04/21 04:08:41;;;;;;;13.37;11.63;;;;;;;;;;5094255;28;20503;-59
2023/04/21 04:11:08;;;;;;;13.03;10.40;;;;;;;;;;5094135;28;20946;-59
2023/04/21 04:13:35;;;;;;;30.93;11.87;;;;;;;;;;5094294;28;20814;-59
2023/04/21 04:16:03;;;;;;;14.60;12.10;;;;;;;;;;5094384;28;20505;-59
2023/04/21 04:18:30;;;;;;;20.13;12.17;;;;;;;;;;5094337;28;20956;-59
2023/04/21 04:20:57;;;;;;;15.93;11.63;;;;;;;;;;5094048;28;20454;-59
2023/04/21 04:23:24;;;;;;;15.23;11.20;;;;;;;;;;5093820;28;20485;-59
2023/04/21 04:25:51;;;;;;;16.90;13.13;;;;;;;;;;5093554;28;20505;-59
2023/04/21 04:28:18;;;;;;;12.90;10.73;;;;;;;;;;5094026;28;20546;-59
2023/04/21 04:30:45;;;;;;;12.90;11.37;;;;;;;;;;5093796;28;20950;-59
2023/04/21 04:33:13;;;;;;;12.80;11.43;;;;;;;;;;5093940;28;20815;-59
2023/04/21 04:35:40;;;;;;;19.27;12.10;;;;;;;;;;5093820;28;20544;-59
2023/04/21 04:38:07;;;;;;;15.97;12.20;;;;;;;;;;5093710;28;21002;-59
2023/04/21 04:40:34;;;;;;;12.90;11.70;;;;;;;;;;5093751;28;20806;-59
2023/04/21 04:43:02;;;;;;;14.20;10.60;;;;;;;;;;5093678;28;20865;-59
2023/04/21 04:45:31;;;;;;;16.40;12.10;;;;;;;;;;5093587;28;20469;-59
2023/04/21 04:47:58;;;;;;;17.13;10.37;;;;;;;;;;5093513;28;20443;-59
2023/04/21 04:50:27;;;;;;;12.87;10.43;;;;;;;;;;5093466;28;20454;-60
2023/04/21 04:52:55;;;;;;;13.70;10.90;;;;;;;;;;5093220;28;20857;-60
2023/04/21 04:55:22;;;;;;;14.37;11.20;;;;;;;;;;5093686;28;20505;-59
2023/04/21 04:57:49;;;;;;;16.30;11.10;;;;;;;;;;5093553;28;20529;-59
2023/04/21 05:00:16;;;;;;;15.93;10.93;;;;;;;;;;5093436;28;20447;-59
2023/04/21 05:02:43;;;;;;;13.30;11.90;;;;;;;;;;5093241;28;20474;-59
2023/04/21 05:05:09;;;;;;;18.07;11.60;;;;;;;;;;5093325;28;20503;-60
2023/04/21 05:07:38;;;;;;;14.77;10.73;;;;;;;;;;5093523;28;20545;-60
2023/04/21 05:10:05;;;;;;;12.37;11.20;;;;;;;;;;5093419;28;20537;-60
2023/04/21 05:12:32;;;;;;;15.77;11.97;;;;;;;;;;5093219;28;21022;-60
2023/04/21 05:14:58;;;;;;;13.10;10.90;;;;;;;;;;5093573;28;20475;-60
2023/04/21 05:17:27;;;;;;;16.83;11.17;;;;;;;;;;5092941;28;20443;-59
2023/04/21 05:19:54;;;;;;;12.23;10.93;;;;;;;;;;5092961;28;20466;-60
2023/04/21 05:22:21;;;;;;;18.43;11.40;;;;;;;;;;5093112;28;20534;-60
2023/04/21 05:24:49;;;;;;;16.90;12.50;;;;;;;;;;5093023;28;20570;-60
2023/04/21 05:29:57;;;;;;;13.07;10.60;;;;;;;;;;5090337;28;20794;-58
2023/04/21 05:32:24;;;;;;;12.60;10.20;;;;;;;;;;5092629;28;20953;-58
2023/04/21 05:34:51;;;;;;;12.13;10.93;;;;;;;;;;5092903;28;20451;-59
2023/04/21 05:37:17;;;;;;;14.63;11.20;;;;;;;;;;5092880;28;20442;-58
2023/04/21 05:39:44;;;;;;;14.17;11.53;;;;;;;;;;5092793;28;20538;-58
2023/04/21 05:42:13;;;;;;;12.33;10.80;;;;;;;;;;5092818;28;20443;-59
2023/04/21 05:44:40;;;;;;;11.10;10.00;;;;;;;;;;5092683;28;21011;-61
2023/04/21 05:47:07;;;;;;;13.70;11.03;;;;;;;;;;5092582;28;20447;-58
2023/04/21 05:49:34;;;;;;;14.07;11.53;;;;;;;;;;5092954;28;20483;-60
2023/04/21 05:52:00;;;;;;;13.33;10.40;;;;;;;;;;5092861;28;20550;-59
2023/04/21 05:54:27;;;;;;;11.20;10.10;;;;;;;;;;5092491;28;20518;-59
2023/04/21 05:56:54;;;;;;;14.73;11.40;;;;;;;;;;5093161;28;20449;-59
2023/04/21 05:59:22;;;;;;;11.73;10.60;;;;;;;;;;5096623;28;21012;-59
2023/04/21 06:01:49;;;;;;;13.90;10.23;;;;;;;;;;5096628;28;20950;-59
2023/04/21 06:04:16;;;;;;;14.97;10.63;;;;;;;;;;5096750;28;20528;-59
2023/04/21 06:06:43;;;;;;;12.43;11.23;;;;;;;;;;5096374;28;21049;-59
2023/04/21 06:09:10;;;;;;;12.17;10.93;;;;;;;;;;5096621;28;20455;-59
2023/04/21 06:11:37;;;;;;;11.50;10.40;;;;;;;;;;5096515;28;20541;-59
2023/04/21 06:14:04;;;;;;;11.20;10.10;;;;;;;;;;5096942;28;20806;-59
2023/04/21 06:16:33;;;;;;;12.80;10.70;;;;;;;;;;5096647;28;20447;-59
2023/04/21 06:19:00;;;;;;;15.43;10.23;;;;;;;;;;5096395;28;20446;-59
2023/04/21 06:21:26;;;;;;;19.83;11.83;;;;;;;;;;5096287;28;20806;-59
2023/04/21 06:23:53;;;;;;;17.40;10.70;;;;;;;;;;5096002;28;20477;-59
2023/04/21 06:26:20;;;;;;;13.30;9.67;;;;;;;;;;5096139;28;20453;-59
2023/04/21 06:28:47;;;;;;;12.20;9.67;;;;;;;;;;5095709;28;20526;-59
2023/04/21 06:31:14;;;;;;;13.23;10.03;;;;;;;;;;5096037;28;20469;-59
2023/04/21 06:33:42;;;;;;;12.90;10.30;;;;;;;;;;5095893;28;20787;-59
2023/04/21 06:36:09;;;;;;;13.07;9.93;;;;;;;;;;5095756;28;20546;-59
2023/04/21 06:38:38;;;;;;;14.23;10.40;;;;;;;;;;5095668;28;20451;-59
2023/04/21 06:41:05;;;;;;;20.27;9.77;;;;;;;;;;5095452;28;20451;-59
2023/04/21 06:43:32;;;;;;;11.60;10.43;;;;;;;;;;5095435;28;21088;-59
2023/04/21 06:45:59;;;;;;;15.13;10.40;;;;;;;;;;5095949;28;20542;-59
2023/04/21 06:48:26;;;;;;;12.10;10.00;;;;;;;;;;5095702;28;20451;-59
2023/04/21 06:50:54;;;;;;;11.97;9.97;;;;;;;;;;5090849;28;21017;-59
2023/04/21 06:53:21;;;;;;;10.60;9.63;;;;;;;;;;5088456;28;20905;-59
2023/04/21 06:55:48;;;;;;;11.50;10.00;;;;;;;;;;5080049;28;20534;-59
2023/04/21 06:58:15;;;;;;;13.53;10.00;;;;;;;;;;5095288;28;20546;-59
2023/04/21 07:00:42;;;;;;;12.17;10.63;;;;;;;;;;5095191;28;20803;-59
2023/04/21 07:03:09;;;;;;;11.13;9.97;;;;;;;;;;5095143;28;20475;-59
2023/04/21 07:05:36;;;;;;;11.77;10.53;;;;;;;;;;5095105;28;20447;-59
2023/04/21 07:08:04;;;;;;;12.60;10.23;;;;;;;;;;5094357;28;20537;-59
2023/04/21 07:10:31;;;;;;;11.80;10.00;;;;;;;;;;5094599;28;20478;-59
2023/04/21 07:12:58;;;;;;;10.00;9.10;;;;;;;;;;5095186;28;20500;-59
2023/04/21 07:15:25;;;;;;;10.60;9.60;;;;;;;;;;5093273;28;20461;-59
2023/04/21 07:17:52;;;;;;;11.13;9.93;;;;;;;;;;5074813;28;20448;-59
2023/04/21 07:20:19;;;;;;;13.50;10.17;;;;;;;;;;5074982;28;20509;-59
2023/04/21 07:22:46;;;;;;;11.53;9.77;;;;;;;;;;5074607;28;20459;-59
2023/04/21 07:25:15;;;;;;;12.33;10.50;;;;;;;;;;5074518;28;21027;-60
2023/04/21 07:27:41;;;;;;;11.97;9.43;;;;;;;;;;5074717;28;20452;-59
2023/04/21 07:30:09;;;;;;;13.77;10.70;;;;;;;;;;5074622;28;20517;-59
2023/04/21 07:32:37;;;;;;;16.60;10.33;;;;;;;;;;5074466;28;20466;-59
2023/04/21 07:35:04;;;;;;;11.87;10.23;;;;;;;;;;5074284;28;20450;-59
2023/04/21 07:37:31;;;;;;;11.07;9.80;;;;;;;;;;5074581;28;20495;-59
2023/04/21 07:39:58;;;;;;;10.37;9.37;;;;;;;;;;5074345;28;20453;-59
2023/04/21 07:42:26;;;;;;;12.40;9.97;;;;;;;;;;5074378;28;21008;-59
2023/04/21 07:44:54;;;;;;;12.23;10.37;;;;;;;;;;5074275;28;20510;-59
2023/04/21 07:47:22;;;;;;;11.23;9.97;;;;;;;;;;5074154;28;20535;-59
2023/04/21 07:49:48;;;;;;;10.57;9.47;;;;;;;;;;5074078;28;20504;-59
2023/04/21 07:52:15;;;;;;;11.10;10.00;;;;;;;;;;5078198;28;20486;-59
2023/04/21 07:54:42;;;;;;;10.20;9.27;;;;;;;;;;5094043;28;20480;-59
2023/04/21 07:57:11;;;;;;;13.67;10.07;;;;;;;;;;5094296;28;20503;-59
2023/04/21 07:59:39;;;;;;;11.90;9.87;;;;;;;;;;5094060;28;20477;-60
2023/04/21 08:02:06;;;;;;;13.33;8.80;;;;;;;;;;5092572;28;20955;-59
2023/04/21 08:04:33;;;;;;;10.47;9.53;;;;;;;;;;5093889;28;20492;-59
2023/04/21 08:07:00;;;;;;;9.97;8.97;;;;;;;;;;5094077;28;20538;-60
2023/04/21 08:09:27;;;;;;;13.20;9.80;;;;;;;;;;5093982;28;20455;-59
2023/04/21 08:11:56;;;;;;;9.93;9.03;;;;;;;;;;5093957;28;20443;-59
2023/04/21 08:14:22;;;;;;;9.20;8.23;;;;;;;;;;5093761;28;20810;-59
2023/04/21 08:16:51;;;;;;;10.13;9.00;;;;;;;;;;5093571;28;20506;-59
2023/04/21 08:19:18;;;;;;;10.43;9.27;;;;;;;;;;5093781;28;20799;-59
2023/04/21 08:21:45;;;;;;;10.47;8.77;;;;;;;;;;5093711;28;20454;-59
2023/04/21 08:24:12;;;;;;;9.80;8.90;;;;;;;;;;5093848;28;20489;-59
2023/04/21 08:26:39;;;;;;;9.30;8.40;;;;;;;;;;5093695;28;20452;-60
2023/04/21 08:29:09;;;;;;;10.20;8.50;;;;;;;;;;5093455;28;20480;-59
2023/04/21 08:31:36;;;;;;;13.70;8.40;;;;;;;;;;5093718;28;20453;-59
2023/04/21 08:34:04;;;;;;;11.23;8.73;;;;;;;;;;5093593;28;20463;-59
2023/04/21 08:36:31;;;;;;;9.87;8.87;;;;;;;;;;5093577;28;20460;-60
2023/04/21 08:38:58;;;;;;;11.00;8.83;;;;;;;;;;5093208;28;20451;-59
2023/04/21 08:41:26;;;;;;;9.17;8.47;;;;;;;;;;5093240;28;20542;-59
2023/04/21 08:43:52;;;;;;;9.30;8.50;;;;;;;;;;5093075;28;20947;-59
2023/04/21 08:46:20;;;;;;;11.60;8.87;;;;;;;;;;5092988;28;20448;-59
2023/04/21 08:48:47;;;;;;;15.70;8.40;;;;;;;;;;5092553;28;20453;-60
2023/04/21 08:51:21;;;;;;;9.90;8.23;;;;;;;;;;5089089;28;20448;-59
2023/04/21 08:53:48;;;;;;;8.70;7.90;;;;;;;;;;5092121;28;20482;-60
2023/04/21 08:56:15;;;;;;;10.70;8.93;;;;;;;;;;5090215;28;20484;-60
2023/04/21 08:58:42;;;;;;;8.60;7.67;;;;;;;;;;5093125;28;20500;-60
2023/04/21 09:01:10;;;;;;;9.10;8.20;;;;;;;;;;5093169;28;20445;-60
2023/04/21 09:03:37;;;;;;;8.43;7.53;;;;;;;;;;5093065;28;20457;-59
2023/04/21 09:06:05;;;;;;;9.83;8.83;;;;;;;;;;5092607;28;20570;-60
2023/04/21 09:08:34;;;;;;;11.40;8.60;;;;;;;;;;5093066;28;20987;-60
2023/04/21 09:11:01;;;;;;;8.83;8.13;;;;;;;;;;5089519;28;20453;-60
2023/04/21 09:13:32;;;;;;;8.40;7.60;;;;;;;;;;5092971;28;20452;-59
2023/04/21 09:15:59;;;;;;;11.27;8.40;;;;;;;;;;5092837;28;20537;-59
2023/04/21 09:18:29;;;;;;;10.67;7.80;;;;;;;;;;5092803;28;20445;-59
2023/04/21 09:21:06;;;;;;;10.10;8.00;;;;;;;;;;5092843;28;20830;-60
2023/04/21 09:23:39;;;;;;;9.40;7.87;;;;;;;;;;5092609;28;20832;-59
2023/04/21 09:26:06;;;;;;;11.40;8.10;;;;;;;;;;5092890;28;20565;-59
2023/04/21 09:28:33;;;;;;;9.90;8.73;;;;;;;;;;5080672;28;20479;-59
2023/04/21 09:31:00;;;;;;;9.53;8.53;;;;;;;;;;5072327;28;20457;-60
2023/04/21 09:33:27;;;;;;;8.70;7.80;;;;;;;;;;5072091;28;20545;-59
2023/04/21 09:35:54;;;;;;;8.93;8.00;;;;;;;;;;5072455;28;20468;-59
2023/04/21 09:38:22;;;;;;;9.57;8.07;;;;;;;;;;5081762;28;20536;-59
2023/04/21 09:40:58;;;;;;;8.53;7.73;;;;;;;;;;5081321;28;20466;-59
2023/04/21 09:43:25;;;;;;;8.83;8.03;;;;;;;;;;5081169;28;20452;-59
2023/04/21 09:45:52;;;;;;;9.30;8.40;;;;;;;;;;5087400;28;21008;-59
2023/04/21 09:48:20;;;;;;;8.70;7.67;;;;;;;;;;5088626;28;20832;-59
2023/04/21 09:50:47;;;;;;;12.90;7.77;;;;;;;;;;5090097;28;20460;-59
2023/04/21 09:53:16;;;;;;;8.97;8.07;;;;;;;;;;5091789;28;20450;-59
2023/04/21 09:55:43;;;;;;;9.70;8.80;;;;;;;;;;5091345;28;20457;-59
2023/04/21 09:58:14;;;;;;;8.90;8.07;;;;;;;;;;5088112;28;20469;-60
2023/04/21 10:00:41;;;;;;;8.43;7.63;;;;;;;;;;5081828;28;20461;-59
2023/04/21 10:03:10;;;;;;;9.53;7.67;;;;;;;;;;5083377;28;20441;-59
2023/04/21 10:05:38;;;;;;;9.27;8.37;;;;;;;;;;5084810;28;20520;-59
2023/04/21 10:08:06;;;;;;;10.30;8.37;;;;;;;;;;5082667;28;20536;-59
2023/04/21 10:10:34;;;;;;;9.40;7.60;;;;;;;;;;5083985;28;20461;-59
2023/04/21 10:13:01;;;;;;;8.47;7.67;;;;;;;;;;5083274;28;20458;-59
2023/04/21 10:15:31;;;;;;;10.93;8.07;;;;;;;;;;5083413;28;20533;-59
2023/04/21 10:18:12;;;;;;;10.63;7.00;;;;;;;;;;5084641;28;20805;-59
2023/04/21 10:20:51;;;;;;;9.40;7.67;;;;;;;;;;5084359;28;20450;-59
2023/04/21 10:23:26;;;;;;;11.33;8.40;;;;;;;;;;5082065;28;20458;-60
2023/04/21 10:25:53;;;;;;;8.53;7.40;;;;;;;;;;5084768;28;20476;-59
2023/04/21 10:28:20;;;;;;;9.10;8.20;;;;;;;;;;5078594;28;20462;-59
2023/04/21 10:30:48;;;;;;;9.07;8.23;;;;;;;;;;5081301;28;20554;-59
2023/04/21 10:33:18;;;;;;;8.57;6.80;;;;;;;;;;5087778;28;20542;-59
2023/04/21 10:35:59;;;;;;;11.40;8.07;;;;;;;;;;5081611;28;20447;-59
2023/04/21 10:38:35;;;;;;;11.00;8.77;;;;;;;;;;5082888;28;20811;-59
2023/04/21 10:41:26;;;;;;;9.60;8.10;;;;;;;;;;5082729;28;21015;-59
2023/04/21 10:43:52;;;;;;;8.40;7.20;;;;;;;;;;5085807;28;20901;-60
2023/04/21 10:46:33;;;;;;;9.53;7.90;;;;;;;;;;5085396;28;20480;-59
2023/04/21 10:49:05;;;;;;;7.80;7.03;;;;;;;;;;5084349;28;20454;-59
2023/04/21 10:51:32;;;;;;;8.37;7.37;;;;;;;;;;5088472;28;20447;-60
2023/04/21 10:54:00;;;;;;;9.27;7.80;;;;;;;;;;5085432;28;20480;-59
2023/04/21 10:56:27;;;;;;;9.17;8.07;;;;;;;;;;5080558;28;20880;-59
2023/04/21 10:58:53;;;;;;;11.93;8.90;;;;;;;;;;5086941;28;20533;-59
2023/04/21 11:01:20;;;;;;;8.47;7.60;;;;;;;;;;5086155;28;20441;-60
2023/04/21 11:03:49;;;;;;;8.00;7.20;;;;;;;;;;5084499;28;20443;-59
2023/04/21 11:06:17;;;;;;;9.00;8.20;;;;;;;;;;5092179;28;20539;-60
2023/04/21 11:08:55;;;;;;;8.27;7.43;;;;;;;;;;5092959;28;20798;-60
2023/04/21 11:11:23;;;;;;;10.20;8.10;;;;;;;;;;5074996;28;20541;-60
2023/04/21 11:13:52;;;;;;;10.40;7.53;;;;;;;;;;5074754;28;20460;-60
2023/04/21 11:16:20;;;;;;;12.50;7.80;;;;;;;;;;5074927;28;20574;-60
2023/04/21 11:18:49;;;;;;;9.10;7.30;;;;;;;;;;5074751;28;20446;-60
2023/04/21 11:21:18;;;;;;;9.33;7.40;;;;;;;;;;5074619;28;20458;-60
2023/04/21 11:23:49;;;;;;;8.20;7.17;;;;;;;;;;5074557;28;20818;-60
2023/04/21 11:26:16;;;;;;;10.53;7.57;;;;;;;;;;5079913;28;20475;-60
2023/04/21 11:28:43;;;;;;;9.40;8.30;;;;;;;;;;5084842;28;20544;-60
2023/04/21 11:31:10;;;;;;;13.67;9.20;;;;;;;;;;5084752;28;20454;-60
2023/04/21 11:33:37;;;;;;;10.20;7.20;;;;;;;;;;5085975;28;20515;-60
2023/04/21 11:36:06;;;;;;;8.20;7.17;;;;;;;;;;5094612;28;20813;-60
2023/04/21 11:38:37;;;;;;;7.93;7.20;;;;;;;;;;5094442;28;20485;-61
2023/04/21 11:41:04;;;;;;;8.87;7.73;;;;;;;;;;5095116;28;20450;-59
2023/04/21 11:43:31;;;;;;;7.97;7.27;;;;;;;;;;5094699;28;20836;-59
2023/04/21 11:46:11;;;;;;;8.40;7.60;;;;;;;;;;5094578;28;20916;-59
2023/04/21 11:48:38;;;;;;;11.10;8.00;;;;;;;;;;5089152;28;20455;-60
2023/04/21 11:51:06;;;;;;;8.37;6.67;;;;;;;;;;5082100;28;20530;-59
2023/04/21 11:53:33;;;;;;;7.20;6.70;;;;;;;;;;5075036;28;20554;-59
2023/04/21 11:56:00;;;;;;;8.63;7.60;;;;;;;;;;5090274;28;20530;-60
2023/04/21 11:58:27;;;;;;;15.73;6.70;;;;;;;;;;5094267;28;20821;-60
2023/04/21 12:00:54;;;;;;;7.23;6.60;;;;;;;;;;5094149;28;20506;-59
2023/04/21 12:03:22;;;;;;;7.40;6.70;;;;;;;;;;5092719;28;20443;-59
2023/04/21 12:05:56;;;;;;;7.23;6.53;;;;;;;;;;5093734;28;20562;-60
2023/04/21 12:08:24;;;;;;;8.10;7.30;;;;;;;;;;5093698;28;20473;-60
2023/04/21 12:10:51;;;;;;;7.87;6.80;;;;;;;;;;5094021;28;20492;-60
2023/04/21 12:13:22;;;;;;;7.57;6.70;;;;;;;;;;5093921;28;20443;-59
2023/04/21 12:15:49;;;;;;;7.23;6.53;;;;;;;;;;5093833;28;20439;-60
2023/04/21 12:18:16;;;;;;;6.03;5.53;;;;;;;;;;5093717;28;20453;-60
2023/04/21 12:20:49;;;;;;;7.87;7.20;;;;;;;;;;5093648;28;20478;-60
2023/04/21 12:23:16;;;;;;;8.13;7.13;;;;;;;;;;5093601;28;20449;-60
2023/04/21 12:25:45;;;;;;;7.50;6.50;;;;;;;;;;5093777;28;20473;-60
2023/04/21 12:28:12;;;;;;;9.50;7.17;;;;;;;;;;5093681;28;20450;-60
2023/04/21 12:30:39;;;;;;;8.07;6.57;;;;;;;;;;5093580;28;20443;-60
2023/04/21 12:33:06;;;;;;;7.37;6.57;;;;;;;;;;5093301;28;20522;-60
2023/04/21 12:35:34;;;;;;;7.93;6.67;;;;;;;;;;5093573;28;20457;-60
2023/04/21 12:38:01;;;;;;;6.83;6.17;;;;;;;;;;5093484;28;20543;-60
2023/04/21 12:40:28;;;;;;;7.40;6.70;;;;;;;;;;5093486;28;20543;-60
2023/04/21 12:42:56;;;;;;;9.47;6.37;;;;;;;;;;5093318;28;20490;-60
2023/04/21 12:45:23;;;;;;;8.90;5.90;;;;;;;;;;5093071;28;20477;-60
2023/04/21 12:47:50;;;;;;;7.20;6.53;;;;;;;;;;5093021;28;20461;-60
2023/04/21 12:50:17;;;;;;;6.43;5.87;;;;;;;;;;5093369;28;20538;-60
2023/04/21 12:52:44;;;;;;;5.90;5.43;;;;;;;;;;5093170;28;20453;-60
2023/04/21 12:55:12;;;;;;;6.30;5.70;;;;;;;;;;5092908;28;20973;-60
2023/04/21 12:57:39;;;;;;;7.60;5.50;;;;;;;;;;5093058;28;20447;-60
2023/04/21 13:00:11;;;;;;;6.67;6.07;;;;;;;;;;5092998;28;20497;-60
2023/04/21 13:02:38;;;;;;;6.73;5.53;;;;;;;;;;5093113;28;20525;-60
2023/04/21 13:05:05;;;;;;;6.60;6.00;;;;;;;;;;5092713;28;20897;-60
2023/04/21 13:07:33;;;;;;;6.40;5.80;;;;;;;;;;5092786;28;20538;-60
2023/04/21 13:10:01;;;;;;;6.60;6.00;;;;;;;;;;5093198;28;20942;-60
2023/04/21 13:12:28;;;;;;;6.33;5.27;;;;;;;;;;5092728;28;20599;-60
2023/04/21 13:14:55;;;;;;;6.53;5.97;;;;;;;;;;5092701;28;21001;-60
2023/04/21 13:17:23;;;;;;;7.17;6.47;;;;;;;;;;5092799;28;20457;-60
2023/04/21 13:19:50;;;;;;;6.13;5.63;;;;;;;;;;5092791;28;20542;-60
2023/04/21 13:22:17;;;;;;;6.00;5.40;;;;;;;;;;5092717;28;20447;-60
2023/04/21 13:24:44;;;;;;;6.27;5.70;;;;;;;;;;5092563;28;20968;-59
2023/04/21 13:27:11;;;;;;;7.00;5.43;;;;;;;;;;5092461;28;20569;-60
2023/04/21 13:29:38;;;;;;;6.17;5.63;;;;;;;;;;5092768;28;20538;-60
2023/04/21 13:32:07;;;;;;;7.20;6.50;;;;;;;;;;5092711;28;20482;-59
2023/04/21 13:34:35;;;;;;;6.57;5.53;;;;;;;;;;5092674;28;20534;-60
2023/04/21 13:37:02;;;;;;;6.10;5.60;;;;;;;;;;5092348;28;20454;-60
2023/04/21 13:39:29;;;;;;;6.90;6.13;;;;;;;;;;5092528;28;20482;-61
2023/04/21 13:41:56;;;;;;;6.33;5.83;;;;;;;;;;5092518;28;20538;-61
2023/04/21 13:44:23;;;;;;;6.53;5.67;;;;;;;;;;5092500;28;20446;-60
2023/04/21 13:46:52;;;;;;;8.40;5.40;;;;;;;;;;5092583;28;20838;-61
2023/04/21 13:49:19;;;;;;;6.77;5.37;;;;;;;;;;5092483;28;20457;-61
2023/04/21 13:51:47;;;;;;;6.40;5.80;;;;;;;;;;5092502;28;20523;-61
2023/04/21 13:54:14;;;;;;;8.40;5.30;;;;;;;;;;5092034;28;20503;-61
2023/04/21 13:56:41;;;;;;;8.07;5.30;;;;;;;;;;5092464;28;20446;-61
2023/04/21 13:59:09;;;;;;;6.27;5.63;;;;;;;;;;5092422;28;20446;-61
2023/04/21 14:01:36;;;;;;;6.20;5.73;;;;;;;;;;5092423;28;20451;-61
2023/04/21 14:04:03;;;;;;;6.33;5.27;;;;;;;;;;5092362;28;20450;-61
2023/04/21 14:06:31;;;;;;;5.60;5.20;;;;;;;;;;5092129;28;20556;-61
2023/04/21 14:09:00;;;;;;;5.77;4.77;;;;;;;;;;5092236;28;20449;-61
2023/04/21 14:11:27;;;;;;;5.10;4.70;;;;;;;;;;5092382;28;20516;-61
2023/04/21 14:13:54;;;;;;;10.30;5.70;;;;;;;;;;5092604;28;20977;-61
2023/04/21 14:16:21;;;;;;;6.20;5.63;;;;;;;;;;5092207;28;20541;-61
2023/04/21 14:18:48;;;;;;;5.50;5.00;;;;;;;;;;5094270;28;20941;-61
2023/04/21 14:21:14;;;;;;;6.03;5.43;;;;;;;;;;5095965;28;20451;-60
2023/04/21 14:23:41;;;;;;;6.47;5.97;;;;;;;;;;5095933;28;20451;-60
2023/04/21 14:26:10;;;;;;;14.33;5.67;;;;;;;;;;5096022;28;20478;-60
2023/04/21 14:28:37;;;;;;;6.17;5.57;;;;;;;;;;5095887;28;20787;-60
2023/04/21 14:31:04;;;;;;;4.77;4.43;;;;;;;;;;5095981;28;20892;-60
2023/04/21 14:33:32;;;;;;;8.10;5.50;;;;;;;;;;5095444;28;20447;-60
2023/04/21 14:35:59;;;;;;;5.80;5.30;;;;;;;;;;5095574;28;20458;-60